createdAt,value
2018-12-09T00:00:24.088Z,55.07
2018-12-09T00:02:54.165Z,49.63
2018-12-09T00:05:22.454Z,46.53
2018-12-09T00:07:51.435Z,46.80
2018-12-09T00:10:20.482Z,48.07
2018-12-09T00:12:49.583Z,48.30
2018-12-09T00:15:18.538Z,48.93
2018-12-09T00:17:47.579Z,47.90
2018-12-09T00:20:16.632Z,48.77
2018-12-09T00:22:45.616Z,48.53
2018-12-09T00:25:14.965Z,49.97
2018-12-09T00:27:43.963Z,51.37
2018-12-09T00:30:12.989Z,51.07
2018-12-09T00:32:42.168Z,49.63
2018-12-09T00:35:11.150Z,49.63
2018-12-09T00:37:40.107Z,49.37
2018-12-09T00:40:09.193Z,50.17
2018-12-09T00:42:43.360Z,54.13
2018-12-09T00:45:07.354Z,53.70
2018-12-09T00:47:36.662Z,55.70
2018-12-09T00:50:05.744Z,55.90
2018-12-09T00:52:34.709Z,56.20
2018-12-09T00:55:04.072Z,56.67
2018-12-09T00:57:33.067Z,58.63
2018-12-09T01:00:02.071Z,57.47
2018-12-09T01:02:31.121Z,57.07
2018-12-09T01:05:00.207Z,56.70
2018-12-09T01:07:29.207Z,58.00
2018-12-09T01:09:58.305Z,58.90
2018-12-09T01:12:27.330Z,55.67
2018-12-09T01:14:56.323Z,54.30
2018-12-09T01:17:25.355Z,50.97
2018-12-09T01:19:54.395Z,49.50
2018-12-09T01:22:23.366Z,49.83
2018-12-09T01:24:52.352Z,54.27
2018-12-09T01:27:21.355Z,56.47
2018-12-09T01:29:50.449Z,57.10
2018-12-09T01:32:19.952Z,61.27
2018-12-09T01:34:48.847Z,61.73
2018-12-09T01:37:17.830Z,60.17
2018-12-09T01:39:46.869Z,59.40
2018-12-09T01:42:15.878Z,57.23
2018-12-09T01:44:44.858Z,58.43
2018-12-09T01:47:14.028Z,56.07
2018-12-09T01:49:43.089Z,52.07
2018-12-09T01:52:12.148Z,52.97
2018-12-09T01:54:41.168Z,52.10
2018-12-09T01:57:10.182Z,50.10
2018-12-09T01:59:39.314Z,46.13
2018-12-09T02:02:08.376Z,48.87
2018-12-09T02:04:37.418Z,47.00
2018-12-09T02:07:06.472Z,48.27
2018-12-09T02:09:35.459Z,46.87
2018-12-09T02:12:04.500Z,46.87
2018-12-09T02:14:33.518Z,47.57
2018-12-09T02:17:02.467Z,50.53
2018-12-09T02:19:31.608Z,48.37
2018-12-09T02:22:00.636Z,49.33
2018-12-09T02:24:29.675Z,52.50
2018-12-09T02:26:58.708Z,50.87
2018-12-09T02:29:27.769Z,50.20
2018-12-09T02:31:56.734Z,50.13
2018-12-09T02:34:26.368Z,44.93
2018-12-09T02:36:55.467Z,44.90
2018-12-09T02:39:24.510Z,44.80
2018-12-09T02:41:53.565Z,45.60
2018-12-09T02:44:22.750Z,45.43
2018-12-09T02:46:51.737Z,44.10
2018-12-09T02:49:20.789Z,40.73
2018-12-09T02:51:49.854Z,40.53
2018-12-09T02:54:18.799Z,42.80
2018-12-09T02:56:47.832Z,42.70
2018-12-09T02:59:16.785Z,43.83
2018-12-09T03:01:45.861Z,45.03
2018-12-09T03:04:14.892Z,51.10
2018-12-09T03:06:43.885Z,50.63
2018-12-09T03:09:12.896Z,51.53
2018-12-09T03:11:41.907Z,53.13
2018-12-09T03:14:10.895Z,55.30
2018-12-09T03:16:39.984Z,55.90
2018-12-09T03:19:08.919Z,57.07
2018-12-09T03:21:37.969Z,58.10
2018-12-09T03:24:07.032Z,58.90
2018-12-09T03:26:36.142Z,63.57
2018-12-09T03:29:05.204Z,64.10
2018-12-09T03:31:34.278Z,51.20
2018-12-09T03:34:03.326Z,56.47
2018-12-09T03:36:32.335Z,55.47
2018-12-09T03:39:01.347Z,56.90
2018-12-09T03:41:30.350Z,58.83
2018-12-09T03:43:59.334Z,57.97
2018-12-09T03:46:28.298Z,57.00
2018-12-09T03:48:57.295Z,58.07
2018-12-09T03:51:26.352Z,55.27
2018-12-09T03:53:55.400Z,49.97
2018-12-09T03:56:24.447Z,47.53
2018-12-09T03:58:53.510Z,44.23
2018-12-09T04:01:22.639Z,43.97
2018-12-09T04:03:51.724Z,45.23
2018-12-09T04:06:20.759Z,45.47
2018-12-09T04:08:49.721Z,49.90
2018-12-09T04:11:18.754Z,53.47
2018-12-09T04:13:47.815Z,49.87
2018-12-09T04:16:16.805Z,51.30
2018-12-09T04:18:45.894Z,55.67
2018-12-09T04:21:14.934Z,53.77
2018-12-09T04:23:43.988Z,57.37
2018-12-09T04:26:13.077Z,52.00
2018-12-09T04:28:42.096Z,47.93
2018-12-09T04:31:11.149Z,47.03
2018-12-09T04:33:40.152Z,42.37
2018-12-09T04:36:09.169Z,38.73
2018-12-09T04:38:38.157Z,39.13
2018-12-09T04:41:07.182Z,36.23
2018-12-09T04:43:36.166Z,31.80
2018-12-09T04:46:05.279Z,28.90
2018-12-09T04:48:34.276Z,21.80
2018-12-09T04:51:03.363Z,34.97
2018-12-09T04:53:32.385Z,34.73
2018-12-09T04:56:01.391Z,37.07
2018-12-09T04:58:30.446Z,40.87
2018-12-09T05:00:59.430Z,49.27
2018-12-09T05:03:28.479Z,48.97
2018-12-09T05:05:57.563Z,55.17
2018-12-09T05:08:26.641Z,57.93
2018-12-09T05:10:55.785Z,57.07
2018-12-09T05:13:24.813Z,60.13
2018-12-09T05:15:53.914Z,59.97
2018-12-09T05:18:22.972Z,59.27
2018-12-09T05:20:52.048Z,58.33
2018-12-09T05:23:21.089Z,55.27
2018-12-09T05:25:50.140Z,50.90
2018-12-09T05:28:19.234Z,45.60
2018-12-09T05:30:48.310Z,45.07
2018-12-09T05:33:17.345Z,44.47
2018-12-09T05:35:46.358Z,36.90
2018-12-09T05:38:15.350Z,33.57
2018-12-09T05:40:44.503Z,33.10
2018-12-09T05:43:13.577Z,30.80
2018-12-09T05:45:42.583Z,31.27
2018-12-09T05:48:11.696Z,26.80
2018-12-09T05:50:40.745Z,23.67
2018-12-09T05:53:09.916Z,52.60
2018-12-09T05:55:38.988Z,56.77
2018-12-09T05:58:08.015Z,62.77
2018-12-09T06:00:37.066Z,69.23
2018-12-09T06:03:06.086Z,69.10
2018-12-09T06:05:35.178Z,75.70
2018-12-09T06:08:04.258Z,76.33
2018-12-09T06:10:33.373Z,85.43
2018-12-09T06:13:02.386Z,91.73
2018-12-09T06:15:31.382Z,84.53
2018-12-09T06:18:00.406Z,90.57
2018-12-09T06:20:29.386Z,87.83
2018-12-09T06:22:58.500Z,89.27
2018-12-09T06:25:27.557Z,94.20
2018-12-09T06:27:56.551Z,87.60
2018-12-09T06:30:25.649Z,89.33
2018-12-09T06:32:54.922Z,87.13
2018-12-09T06:35:23.947Z,93.17
2018-12-09T06:37:53.021Z,86.07
2018-12-09T06:40:22.144Z,85.93
2018-12-09T06:42:51.226Z,89.40
2018-12-09T06:45:20.255Z,86.50
2018-12-09T06:47:49.274Z,88.10
2018-12-09T06:50:18.609Z,75.03
2018-12-09T06:52:47.607Z,107.00
2018-12-09T06:55:16.650Z,139.80
2018-12-09T06:57:45.762Z,80.40
2018-12-09T07:00:14.752Z,86.50
2018-12-09T07:02:43.805Z,53.83
2018-12-09T07:05:12.952Z,61.40
2018-12-09T07:07:41.975Z,58.90
2018-12-09T07:10:11.116Z,66.80
2018-12-09T07:12:40.440Z,67.67
2018-12-09T07:15:09.593Z,52.10
2018-12-09T07:17:38.669Z,58.20
2018-12-09T07:20:08.889Z,54.53
2018-12-09T07:22:37.962Z,71.27
2018-12-09T07:25:07.183Z,54.93
2018-12-09T07:27:36.430Z,63.50
2018-12-09T07:30:06.212Z,54.07
2018-12-09T07:32:35.247Z,59.57
2018-12-09T07:35:04.432Z,64.93
2018-12-09T07:37:33.548Z,67.27
2018-12-09T07:40:02.577Z,69.97
2018-12-09T07:42:31.646Z,70.97
2018-12-09T07:45:00.599Z,73.27
2018-12-09T07:47:29.719Z,80.63
2018-12-09T07:49:59.101Z,71.97
2018-12-09T07:52:28.184Z,62.07
2018-12-09T07:54:57.356Z,82.40
2018-12-09T07:57:27.068Z,51.80
2018-12-09T07:59:56.102Z,29.07
2018-12-09T08:02:25.174Z,22.27
2018-12-09T08:04:54.246Z,14.70
2018-12-09T08:07:23.259Z,14.30
2018-12-09T08:09:52.247Z,10.60
2018-12-09T08:12:21.319Z,8.53
2018-12-09T08:14:50.487Z,8.13
2018-12-09T08:17:19.438Z,8.40
2018-12-09T08:19:48.436Z,8.90
2018-12-09T08:22:17.456Z,9.07
2018-12-09T08:24:46.429Z,8.43
2018-12-09T08:27:15.441Z,9.10
2018-12-09T08:29:44.639Z,12.07
2018-12-09T08:32:13.758Z,13.60
2018-12-09T08:34:42.803Z,14.63
2018-12-09T08:37:16.463Z,9.27
2018-12-09T08:39:45.560Z,9.20
2018-12-09T08:42:14.558Z,9.67
2018-12-09T08:44:43.607Z,10.47
2018-12-09T08:47:12.707Z,13.70
2018-12-09T08:49:41.787Z,8.83
2018-12-09T08:52:10.849Z,7.70
2018-12-09T08:54:39.857Z,8.53
2018-12-09T08:57:08.889Z,7.73
2018-12-09T08:59:37.861Z,7.60
2018-12-09T09:02:07.010Z,6.50
2018-12-09T09:04:35.975Z,7.33
2018-12-09T09:07:05.019Z,5.73
2018-12-09T09:09:34.142Z,10.20
2018-12-09T09:12:03.199Z,7.87
2018-12-09T09:14:32.418Z,6.30
2018-12-09T09:17:01.744Z,6.47
2018-12-09T09:19:30.739Z,5.13
2018-12-09T09:21:59.737Z,5.60
2018-12-09T09:24:28.777Z,4.57
2018-12-09T09:26:57.788Z,5.87
2018-12-09T09:29:26.836Z,4.90
2018-12-09T09:31:55.989Z,4.73
2018-12-09T09:34:25.062Z,7.07
2018-12-09T09:36:54.148Z,5.27
2018-12-09T09:39:23.247Z,6.23
2018-12-09T09:41:52.307Z,5.00
2018-12-09T09:44:21.399Z,5.10
2018-12-09T09:46:50.479Z,5.47
2018-12-09T09:49:19.523Z,5.90
2018-12-09T09:51:48.629Z,7.70
2018-12-09T09:54:17.976Z,13.17
2018-12-09T09:56:46.973Z,13.87
2018-12-09T09:59:15.956Z,9.90
2018-12-09T10:01:45.049Z,8.63
2018-12-09T10:04:14.052Z,8.73
2018-12-09T10:06:43.129Z,20.80
2018-12-09T10:09:12.207Z,9.37
2018-12-09T10:11:41.276Z,14.30
2018-12-09T10:14:10.341Z,10.93
2018-12-09T10:16:39.491Z,18.13
2018-12-09T10:19:08.592Z,16.40
2018-12-09T10:21:37.595Z,16.23
2018-12-09T10:24:06.784Z,13.13
2018-12-09T10:26:36.623Z,21.80
2018-12-09T10:29:04.892Z,23.77
2018-12-09T10:31:34.259Z,15.50
2018-12-09T10:34:03.227Z,15.33
2018-12-09T10:36:32.202Z,15.57
2018-12-09T10:39:02.862Z,12.87
2018-12-09T10:41:31.880Z,16.37
2018-12-09T10:44:00.894Z,24.37
2018-12-09T10:46:29.929Z,12.40
2018-12-09T10:48:58.902Z,12.63
2018-12-09T10:51:27.922Z,12.60
2018-12-09T10:53:56.995Z,12.90
2018-12-09T10:56:26.049Z,11.20
2018-12-09T10:58:55.519Z,10.23
2018-12-09T11:01:27.493Z,14.03
2018-12-09T11:03:56.589Z,11.70
2018-12-09T11:06:25.635Z,10.93
2018-12-09T11:08:54.885Z,8.70
2018-12-09T11:11:23.838Z,8.53
2018-12-09T11:13:58.067Z,8.30
2018-12-09T11:16:21.919Z,7.87
2018-12-09T11:18:50.897Z,10.40
2018-12-09T11:21:19.894Z,11.03
2018-12-09T11:23:48.989Z,12.33
2018-12-09T11:26:17.995Z,10.40
2018-12-09T11:28:47.056Z,9.07
2018-12-09T11:31:24.684Z,9.63
2018-12-09T11:33:54.762Z,8.80
2018-12-09T11:36:23.820Z,9.30
2018-12-09T11:38:53.066Z,8.33
2018-12-09T11:41:22.206Z,9.40
2018-12-09T11:43:51.179Z,8.87
2018-12-09T11:46:20.552Z,8.43
2018-12-09T11:48:49.573Z,8.90
2018-12-09T11:51:18.560Z,9.63
2018-12-09T11:53:47.619Z,8.97
2018-12-09T11:56:16.627Z,8.43
2018-12-09T11:58:45.654Z,9.07
2018-12-09T12:01:14.743Z,9.33
2018-12-09T12:03:43.801Z,8.97
2018-12-09T12:06:12.903Z,9.63
2018-12-09T12:08:41.982Z,9.33
2018-12-09T12:11:10.994Z,10.80
2018-12-09T12:13:40.081Z,9.90
2018-12-09T12:16:09.183Z,9.17
2018-12-09T12:18:38.211Z,9.90
2018-12-09T12:21:07.199Z,9.13
2018-12-09T12:23:36.230Z,10.30
2018-12-09T12:26:05.463Z,9.87
2018-12-09T12:28:34.579Z,9.97
2018-12-09T12:31:03.676Z,9.67
2018-12-09T12:33:32.654Z,10.57
2018-12-09T12:36:01.668Z,9.33
2018-12-09T12:38:30.761Z,9.93
2018-12-09T12:40:59.734Z,10.17
2018-12-09T12:43:28.840Z,9.97
2018-12-09T12:45:58.056Z,9.10
2018-12-09T12:48:27.144Z,10.37
2018-12-09T12:50:56.225Z,9.97
2018-12-09T12:53:25.351Z,10.47
2018-12-09T12:55:54.350Z,10.57
2018-12-09T12:58:23.488Z,10.27
2018-12-09T13:00:52.629Z,9.00
2018-12-09T13:03:21.767Z,8.90
2018-12-09T13:05:50.965Z,8.83
2018-12-09T13:08:20.072Z,8.40
2018-12-09T13:10:49.065Z,8.80
2018-12-09T13:13:18.092Z,8.83
2018-12-09T13:15:47.116Z,9.23
2018-12-09T13:18:16.145Z,8.67
2018-12-09T13:20:45.225Z,9.00
2018-12-09T13:23:14.339Z,9.47
2018-12-09T13:25:43.458Z,8.70
2018-12-09T13:28:12.604Z,10.10
2018-12-09T13:30:41.934Z,10.00
2018-12-09T13:33:11.048Z,8.30
2018-12-09T13:35:40.039Z,8.83
2018-12-09T13:38:09.081Z,8.50
2018-12-09T13:40:38.143Z,8.30
2018-12-09T13:43:07.152Z,8.90
2018-12-09T13:45:36.195Z,8.50
2018-12-09T13:48:05.780Z,8.17
2018-12-09T13:50:34.854Z,9.20
2018-12-09T13:53:03.864Z,7.20
2018-12-09T13:55:32.910Z,7.47
2018-12-09T13:58:01.951Z,6.53
2018-12-09T14:00:31.495Z,6.77
2018-12-09T14:03:00.509Z,10.07
2018-12-09T14:05:29.544Z,9.20
2018-12-09T14:07:58.622Z,9.77
2018-12-09T14:10:27.704Z,9.83
2018-12-09T14:12:56.723Z,9.53
2018-12-09T14:15:25.802Z,10.37
2018-12-09T14:17:55.334Z,10.20
2018-12-09T14:20:24.374Z,10.00
2018-12-09T14:22:53.436Z,9.17
2018-12-09T14:25:22.432Z,9.30
2018-12-09T14:27:51.441Z,9.13
2018-12-09T14:30:20.942Z,9.23
2018-12-09T14:32:50.164Z,10.20
2018-12-09T14:35:19.265Z,11.53
2018-12-09T14:37:48.334Z,15.00
2018-12-09T14:40:18.098Z,18.37
2018-12-09T14:42:47.125Z,28.57
2018-12-09T14:45:16.184Z,28.37
2018-12-09T14:47:45.272Z,27.03
2018-12-09T14:50:14.333Z,24.00
2018-12-09T14:52:43.379Z,21.53
2018-12-09T14:55:12.439Z,23.27
2018-12-09T14:57:41.436Z,37.40
2018-12-09T15:00:11.519Z,37.23
2018-12-09T15:02:40.509Z,31.07
2018-12-09T15:05:09.582Z,25.17
2018-12-09T15:07:38.585Z,26.77
2018-12-09T15:10:08.983Z,28.63
2018-12-09T15:12:36.960Z,24.83
2018-12-09T15:15:06.299Z,22.77
2018-12-09T15:17:35.319Z,18.23
2018-12-09T15:20:04.611Z,20.17
2018-12-09T15:22:33.675Z,34.50
2018-12-09T15:25:02.709Z,38.07
2018-12-09T15:27:31.804Z,35.13
2018-12-09T15:30:00.854Z,34.13
2018-12-09T15:32:29.878Z,32.57
2018-12-09T15:34:58.984Z,33.53
2018-12-09T15:37:28.076Z,29.20
2018-12-09T15:39:57.068Z,27.87
2018-12-09T15:42:26.086Z,23.80
2018-12-09T15:44:55.118Z,21.77
2018-12-09T15:47:24.156Z,21.23
2018-12-09T15:49:53.180Z,21.97
2018-12-09T15:52:22.203Z,35.20
2018-12-09T15:54:51.207Z,42.00
2018-12-09T15:57:20.175Z,42.73
2018-12-09T15:59:49.204Z,37.53
2018-12-09T16:02:18.276Z,43.50
2018-12-09T16:04:47.323Z,41.87
2018-12-09T16:07:16.341Z,39.90
2018-12-09T16:09:45.371Z,35.57
2018-12-09T16:12:14.407Z,32.70
2018-12-09T16:14:43.620Z,28.67
2018-12-09T16:17:12.617Z,30.13
2018-12-09T16:19:42.303Z,33.57
2018-12-09T16:22:13.840Z,29.17
2018-12-09T16:24:43.003Z,30.47
2018-12-09T16:27:12.095Z,28.13
2018-12-09T16:29:41.147Z,26.93
2018-12-09T16:32:10.118Z,32.23
2018-12-09T16:34:39.152Z,22.83
2018-12-09T16:37:08.617Z,21.03
2018-12-09T16:39:37.584Z,20.83
2018-12-09T16:42:06.611Z,13.80
2018-12-09T16:44:35.643Z,15.43
2018-12-09T16:47:04.768Z,14.80
2018-12-09T16:49:33.734Z,14.57
2018-12-09T16:52:02.812Z,11.13
2018-12-09T16:54:32.002Z,12.57
2018-12-09T16:57:01.102Z,11.80
2018-12-09T16:59:30.746Z,10.53
2018-12-09T17:02:01.531Z,10.73
2018-12-09T17:04:31.543Z,11.20
2018-12-09T17:07:00.840Z,14.73
2018-12-09T17:09:31.147Z,8.93
2018-12-09T17:12:00.429Z,7.23
2018-12-09T17:14:32.123Z,8.73
2018-12-09T17:17:00.700Z,10.43
2018-12-09T17:19:30.007Z,11.30
2018-12-09T17:21:59.137Z,11.50
2018-12-09T17:24:28.640Z,11.27
2018-12-09T17:26:57.873Z,10.13
2018-12-09T17:29:28.438Z,8.17
2018-12-09T17:31:58.504Z,9.27
2018-12-09T17:34:28.310Z,8.90
2018-12-09T17:36:58.433Z,8.90
2018-12-09T17:39:28.432Z,8.63
2018-12-09T17:41:58.423Z,8.43
2018-12-09T17:44:28.167Z,8.20
2018-12-09T17:47:00.062Z,8.10
2018-12-09T17:49:30.172Z,8.50
2018-12-09T17:52:00.271Z,12.53
2018-12-09T17:54:30.287Z,12.10
2018-12-09T17:57:00.559Z,13.17
2018-12-09T17:59:32.749Z,12.37
2018-12-09T18:02:02.749Z,11.47
2018-12-09T18:04:33.736Z,12.27
2018-12-09T18:07:04.211Z,12.77
2018-12-09T18:09:33.813Z,13.10
2018-12-09T18:12:04.307Z,13.17
2018-12-09T18:14:34.466Z,11.83
2018-12-09T18:17:03.587Z,12.53
2018-12-09T18:19:34.842Z,12.00
2018-12-09T18:22:03.968Z,13.60
2018-12-09T18:24:34.086Z,15.00
2018-12-09T18:27:03.729Z,17.00
2018-12-09T18:29:33.112Z,23.00
2018-12-09T18:32:04.664Z,20.43
2018-12-09T18:34:41.091Z,13.23
2018-12-09T18:37:11.538Z,12.50
2018-12-09T18:39:40.898Z,13.17
2018-12-09T18:42:10.139Z,12.30
2018-12-09T18:44:40.675Z,12.23
2018-12-09T18:47:10.254Z,17.57
2018-12-09T18:49:40.254Z,14.57
2018-12-09T18:52:11.707Z,18.63
2018-12-09T18:54:44.264Z,19.80
2018-12-09T18:57:16.593Z,20.30
2018-12-09T18:59:47.201Z,19.53
2018-12-09T19:02:16.478Z,17.13
2018-12-09T19:04:45.571Z,19.57
2018-12-09T19:07:15.647Z,16.33
2018-12-09T19:09:45.307Z,14.37
2018-12-09T19:12:14.748Z,14.50
2018-12-09T19:14:44.691Z,17.70
2018-12-09T19:17:14.079Z,15.43
2018-12-09T19:19:43.291Z,14.30
2018-12-09T19:22:12.484Z,14.60
2018-12-09T19:24:41.747Z,46.27
2018-12-09T19:27:11.109Z,61.80
2018-12-09T19:29:40.484Z,14.70
2018-12-09T19:32:09.862Z,14.73
2018-12-09T19:34:38.915Z,14.07
2018-12-09T19:37:08.484Z,17.17
2018-12-09T19:39:37.837Z,14.70
2018-12-09T19:42:07.033Z,15.27
2018-12-09T19:44:36.582Z,14.33
2018-12-09T19:47:07.482Z,15.33
2018-12-09T19:49:36.533Z,14.17
2018-12-09T19:52:06.185Z,13.53
2018-12-09T19:54:35.607Z,17.13
2018-12-09T19:57:04.684Z,17.50
2018-12-09T19:59:33.712Z,19.60
2018-12-09T20:02:02.934Z,21.33
2018-12-09T20:04:31.947Z,20.40
2018-12-09T20:07:01.016Z,19.20
2018-12-09T20:09:30.139Z,22.97
2018-12-09T20:11:59.196Z,20.73
2018-12-09T20:14:31.710Z,18.73
2018-12-09T20:17:00.888Z,18.63
2018-12-09T20:19:30.086Z,17.43
2018-12-09T20:21:59.227Z,18.10
2018-12-09T20:24:28.520Z,19.33
2018-12-09T20:26:57.741Z,19.63
2018-12-09T20:29:26.956Z,19.30
2018-12-09T20:31:56.028Z,17.07
2018-12-09T20:34:25.071Z,17.70
2018-12-09T20:36:54.120Z,18.27
2018-12-09T20:39:23.158Z,19.30
2018-12-09T20:41:52.236Z,18.53
2018-12-09T20:44:21.478Z,178.37
2018-12-09T20:46:50.650Z,30.30
2018-12-09T20:49:19.719Z,20.90
2018-12-09T20:51:48.882Z,20.30
2018-12-09T20:54:17.933Z,23.33
2018-12-09T20:56:46.969Z,22.93
2018-12-09T20:59:16.079Z,23.13
2018-12-09T21:01:46.999Z,24.30
2018-12-09T21:04:16.210Z,24.87
2018-12-09T21:06:45.351Z,24.53
2018-12-09T21:09:14.471Z,23.73
2018-12-09T21:11:43.520Z,26.10
2018-12-09T21:14:12.660Z,25.33
2018-12-09T21:16:43.247Z,24.47
2018-12-09T21:19:12.505Z,26.40
2018-12-09T21:21:45.070Z,26.53
2018-12-09T21:24:25.765Z,26.97
2018-12-09T21:26:54.907Z,25.93
2018-12-09T21:29:28.134Z,27.07
2018-12-09T21:32:01.021Z,25.43
2018-12-09T21:34:36.045Z,26.17
2018-12-09T21:37:11.072Z,50.70
2018-12-09T21:39:40.708Z,35.43
2018-12-09T21:42:09.781Z,27.10
2018-12-09T21:44:39.027Z,25.70
2018-12-09T21:47:08.312Z,27.10
2018-12-09T21:49:37.344Z,25.17
2018-12-09T21:52:06.416Z,24.57
2018-12-09T21:54:35.485Z,24.80
2018-12-09T21:57:04.533Z,24.77
2018-12-09T21:59:33.556Z,22.20
2018-12-09T22:02:02.867Z,24.13
2018-12-09T22:04:32.029Z,20.07
2018-12-09T22:07:01.311Z,21.00
2018-12-09T22:09:30.317Z,20.90
2018-12-09T22:11:59.411Z,17.27
2018-12-09T22:14:29.382Z,12.87
2018-12-09T22:16:58.400Z,13.13
2018-12-09T22:19:27.439Z,13.77
2018-12-09T22:21:56.528Z,13.10
2018-12-09T22:24:25.500Z,12.80
2018-12-09T22:26:54.570Z,13.70
2018-12-09T22:29:23.590Z,12.80
2018-12-09T22:31:52.556Z,11.53
2018-12-09T22:34:21.764Z,11.97
2018-12-09T22:36:50.820Z,12.67
2018-12-09T22:39:19.815Z,13.30
2018-12-09T22:41:48.835Z,12.93
2018-12-09T22:44:17.909Z,12.27
2018-12-09T22:46:46.976Z,11.17
2018-12-09T22:49:15.986Z,11.17
2018-12-09T22:51:45.045Z,10.53
2018-12-09T22:54:14.049Z,10.47
2018-12-09T22:56:43.126Z,9.63
2018-12-09T22:59:12.324Z,11.00
2018-12-09T23:01:45.384Z,10.53
2018-12-09T23:04:14.488Z,10.17
2018-12-09T23:06:43.539Z,11.00
2018-12-09T23:09:12.516Z,10.13
2018-12-09T23:11:41.534Z,10.37
2018-12-09T23:14:10.588Z,10.40
2018-12-09T23:16:39.591Z,8.20
2018-12-09T23:19:08.884Z,7.73
2018-12-09T23:21:37.891Z,8.00
2018-12-09T23:24:06.940Z,7.87
2018-12-09T23:26:35.967Z,7.53
2018-12-09T23:29:04.975Z,7.90
2018-12-09T23:31:33.945Z,7.60
2018-12-09T23:34:03.023Z,8.93
2018-12-09T23:36:32.062Z,11.80
2018-12-09T23:39:01.134Z,11.53
2018-12-09T23:41:30.222Z,10.43
2018-12-09T23:43:59.218Z,10.47
2018-12-09T23:46:28.211Z,9.53
2018-12-09T23:48:57.267Z,9.90
2018-12-09T23:51:26.238Z,9.87
2018-12-09T23:53:55.319Z,10.40
2018-12-09T23:56:24.772Z,10.77
2018-12-09T23:58:53.767Z,10.53
